ΕΜΥ, Εθνική Μετεωρολογική Υπηρεσία - Δελτία Καιρού, Προγνώσεις

ΑΕΡΟΝΑΥΤΙΛΙΑ

GREEK AIRPORTS CODES

LGMG 031600Z 13006KT 9999 FEW020 26/11 Q1012 RMK SCT180=

EUROPEAN AIRPORTS CODES

UUWW 040130Z 27003MPS CAVOK 03/02 Q1018 R24/000070 TEMPO 2000BR=